| time (UTC) | temp C | wind direction | speed KPH | gust KPH | rain 1hr cm | rain 24hr cm | rain mn cm | humidity % | barometer mb |
| 20260906211552 | 30 | 1 | 14.5 | 25.7 | 0.00 | 0.00 | 0.00 | 38 | 1018.5 |
| 20260906210108 | 31 | 1 | 8.0 | 20.9 | 0.00 | 0.00 | 0.00 | 36 | 1018.9 |
| 20260906204549 | 30 | 1 | 6.4 | 17.7 | 0.00 | 0.00 | 0.00 | 39 | 1018.9 |
| 20260906203053 | 29 | 1 | 11.3 | 19.3 | 0.00 | 0.00 | 0.00 | 41 | 1019.0 |
| 20260906201633 | 30 | 1 | 11.3 | 19.3 | 0.00 | 0.00 | 0.00 | 41 | 1019.0 |
| 20260906200049 | 30 | 1 | 9.7 | 17.7 | 0.00 | 0.00 | 0.00 | 41 | 1019.0 |
| 20260906194604 | 30 | 1 | 6.4 | 17.7 | 0.00 | 0.00 | 0.00 | 39 | 1019.5 |
| 20260906193050 | 30 | 1 | 4.8 | 12.9 | 0.00 | 0.00 | 0.00 | 38 | 1019.8 |
| 20260906191605 | 30 | 1 | 3.2 | 12.9 | 0.00 | 0.00 | 0.00 | 38 | 1020.0 |
| 20260906190049 | 28 | 1 | 1.6 | 12.9 | 0.00 | 0.00 | 0.00 | 40 | 1020.2 |
| 20260906184548 | 30 | 1 | 3.2 | 9.7 | 0.00 | 0.00 | 0.00 | 38 | 1020.5 |
| 20260906183051 | 29 | 1 | 1.6 | 9.7 | 0.00 | 0.00 | 0.00 | 40 | 1020.9 |
| 20260906181609 | 29 | 1 | 1.6 | 9.7 | 0.00 | 0.00 | 0.00 | 40 | 1021.3 |
| 20260906180051 | 28 | 1 | 4.8 | 14.5 | 0.00 | 0.00 | 0.00 | 40 | 1021.4 |
| 20260906174546 | 27 | 1 | 8.0 | 19.3 | 0.00 | 0.00 | 0.00 | 46 | 1021.3 |
| 20260906173044 | 27 | 1 | 6.4 | 14.5 | 0.00 | 0.00 | 0.00 | 46 | 1021.8 |
| 20260906171553 | 26 | 360 | 4.8 | 12.9 | 0.00 | 0.00 | 0.00 | 50 | 1022.1 |
| 20260906170053 | 25 | 360 | 4.8 | 12.9 | 0.00 | 0.00 | 0.00 | 51 | 1021.8 |
| 20260906164551 | 25 | 360 | 6.4 | 14.5 | 0.00 | 0.00 | 0.00 | 55 | 1021.9 |
| 20260906163103 | 23 | 360 | 8.0 | 16.1 | 0.00 | 0.00 | 0.00 | 62 | 1022.0 |
| 20260906161601 | 23 | 360 | 9.7 | 16.1 | 0.00 | 0.00 | 0.00 | 66 | 1022.1 |
| 20260906160048 | 22 | 360 | 9.7 | 19.3 | 0.00 | 0.00 | 0.00 | 67 | 1022.2 |
| 20260906154552 | 22 | 360 | 9.7 | 19.3 | 0.00 | 0.00 | 0.00 | 67 | 1022.1 |
| 20260906153053 | 21 | 360 | 11.3 | 17.7 | 0.00 | 0.00 | 0.00 | 69 | 1022.3 |
| 20260906151552 | 21 | 360 | 9.7 | 17.7 | 0.00 | 0.00 | 0.00 | 72 | 1022.0 |
| 20260906150048 | 20 | 360 | 12.9 | 19.3 | 0.00 | 0.00 | 0.00 | 74 | 1022.3 |
| 20260906144545 | 19 | 360 | 12.9 | 20.9 | 0.00 | 0.00 | 0.00 | 78 | 1022.2 |
| 20260906143056 | 18 | 360 | 12.9 | 24.1 | 0.00 | 0.00 | 0.00 | 78 | 1022.1 |
| 20260906141553 | 17 | 360 | 14.5 | 22.5 | 0.00 | 0.00 | 0.00 | 82 | 1022.1 |
| 20260906140101 | 17 | 360 | 12.9 | 22.5 | 0.00 | 0.00 | 0.00 | 83 | 1022.2 |
| 20260906134549 | 16 | 360 | 12.9 | 19.3 | 0.00 | 0.00 | 0.00 | 83 | 1022.0 |
| 20260906133100 | 16 | 360 | 9.7 | 17.7 | 0.00 | 0.00 | 0.00 | 84 | 1021.9 |
| 20260906131552 | 15 | 360 | 11.3 | 17.7 | 0.00 | 0.00 | 0.00 | 84 | 1021.7 |
| 20260906130107 | 15 | 360 | 6.4 | 12.9 | 0.00 | 0.00 | 0.00 | 85 | 1021.6 |
| 20260906124546 | 15 | 360 | 8.0 | 17.7 | 0.00 | 0.00 | 0.00 | 84 | 1021.8 |
| 20260906123044 | 15 | 360 | 11.3 | 16.1 | 0.00 | 0.00 | 0.00 | 82 | 1021.5 |
| 20260906121606 | 15 | 360 | 6.4 | 11.3 | 0.00 | 0.00 | 0.00 | 80 | 1021.4 |
| 20260906120045 | 15 | 360 | 6.4 | 11.3 | 0.00 | 0.00 | 0.00 | 77 | 1021.5 |
| 20260906114604 | 15 | 360 | 8.0 | 9.7 | 0.00 | 0.00 | 0.00 | 75 | 1021.2 |
| 20260906113106 | 15 | 360 | 4.8 | 9.7 | 0.00 | 0.00 | 0.00 | 74 | 1021.0 |
| 20260906111553 | 15 | 360 | 1.6 | 6.4 | 0.00 | 0.00 | 0.00 | 72 | 1021.1 |
| 20260906110046 | 15 | 360 | 3.2 | 8.0 | 0.00 | 0.00 | 0.00 | 70 | 1021.0 |
| 20260906104544 | 15 | 0 | 0.0 | 4.8 | 0.00 | 0.00 | 0.00 | 69 | 1021.0 |
| 20260906103053 | 15 | 360 | 3.2 | 4.8 | 0.00 | 0.00 | 0.00 | 68 | 1021.2 |
| 20260906101554 | 16 | 360 | 0.0 | 4.8 | 0.00 | 0.00 | 0.00 | 67 | 1021.0 |
| 20260906100049 | 16 | 0 | 0.0 | 6.4 | 0.00 | 0.00 | 0.00 | 67 | 1021.1 |
| 20260906094549 | 16 | 360 | 3.2 | 4.8 | 0.00 | 0.00 | 0.00 | 67 | 1020.9 |
| 20260906093050 | 17 | 360 | 3.2 | 4.8 | 0.00 | 0.00 | 0.00 | 65 | 1021.0 |
| 20260906091549 | 17 | 0 | 1.6 | 6.4 | 0.00 | 0.00 | 0.00 | 63 | 1020.7 |
| 20260906090048 | 18 | 360 | 3.2 | 6.4 | 0.00 | 0.00 | 0.00 | 63 | 1020.4 |
| 20260906084552 | 18 | 360 | 6.4 | 9.7 | 0.00 | 0.00 | 0.00 | 62 | 1020.6 |
| 20260906083049 | 18 | 360 | 3.2 | 9.7 | 0.00 | 0.00 | 0.00 | 60 | 1021.0 |
| 20260906081544 | 19 | 0 | 0.0 | 6.4 | 0.00 | 0.00 | 0.00 | 57 | 1021.3 |
| 20260906080044 | 20 | 360 | 1.6 | 6.4 | 0.00 | 0.00 | 0.00 | 56 | 1021.2 |
| 20260906074555 | 20 | 360 | 1.6 | 11.3 | 0.00 | 0.00 | 0.00 | 54 | 1021.0 |
| 20260906073048 | 20 | 0 | 0.0 | 6.4 | 0.00 | 0.00 | 0.00 | 52 | 1020.8 |
| 20260906071543 | 20 | 360 | 4.8 | 11.3 | 0.00 | 0.00 | 0.00 | 51 | 1020.6 |
| 20260906070053 | 20 | 360 | 6.4 | 8.0 | 0.00 | 0.00 | 0.00 | 49 | 1020.2 |
| 20260906064546 | 21 | 360 | 6.4 | 9.7 | 0.00 | 0.00 | 0.00 | 48 | 1020.2 |
| 20260906063046 | 21 | 360 | 9.7 | 17.7 | 0.00 | 0.00 | 0.00 | 47 | 1020.4 |
| 20260906061543 | 22 | 360 | 11.3 | 17.7 | 0.00 | 0.00 | 0.00 | 48 | 1020.6 |
| 20260906060125 | 22 | 360 | 11.3 | 17.7 | 0.00 | 0.00 | 0.00 | 47 | 1020.6 |
| 20260906054545 | 21 | 360 | 12.9 | 19.3 | 0.00 | 0.00 | 0.00 | 49 | 1020.6 |
| 20260906053042 | 21 | 360 | 4.8 | 12.9 | 0.00 | 0.00 | 0.00 | 52 | 1020.6 |
| 20260906051542 | 21 | 360 | 8.0 | 11.3 | 0.00 | 0.00 | 0.00 | 51 | 1020.4 |
| 20260906050109 | 21 | 360 | 6.4 | 11.3 | 0.00 | 0.00 | 0.00 | 48 | 1020.7 |
| 20260906044546 | 21 | 360 | 4.8 | 9.7 | 0.00 | 0.00 | 0.00 | 46 | 1021.0 |
| 20260906043052 | 21 | 360 | 3.2 | 8.0 | 0.00 | 0.00 | 0.00 | 46 | 1020.8 |
| 20260906041550 | 22 | 360 | 6.4 | 11.3 | 0.00 | 0.00 | 0.00 | 44 | 1020.8 |
| 20260906040048 | 23 | 360 | 3.2 | 6.4 | 0.00 | 0.00 | 0.00 | 41 | 1020.6 |
| 20260906034558 | 24 | 360 | 1.6 | 6.4 | 0.00 | 0.00 | 0.00 | 40 | 1020.8 |
| 20260906033052 | 23 | 360 | 6.4 | 16.1 | 0.00 | 0.00 | 0.00 | 39 | 1020.5 |
| 20260906031609 | 24 | 360 | 4.8 | 12.9 | 0.00 | 0.00 | 0.00 | 36 | 1020.6 |
| 20260906030055 | 24 | 360 | 6.4 | 17.7 | 0.00 | 0.00 | 0.00 | 35 | 1020.0 |
| 20260906024556 | 25 | 360 | 12.9 | 20.9 | 0.00 | 0.00 | 0.00 | 34 | 1019.7 |
| 20260906023108 | 24 | 360 | 9.7 | 14.5 | 0.00 | 0.00 | 0.00 | 36 | 1019.6 |
| 20260906021551 | 23 | 360 | 6.4 | 12.9 | 0.00 | 0.00 | 0.00 | 38 | 1019.2 |
| 20260906020055 | 24 | 360 | 8.0 | 12.9 | 0.00 | 0.00 | 0.00 | 36 | 1019.0 |
| 20260906014552 | 24 | 360 | 9.7 | 14.5 | 0.00 | 0.00 | 0.00 | 36 | 1019.1 |
| 20260906013044 | 25 | 360 | 6.4 | 9.7 | 0.00 | 0.00 | 0.00 | 35 | 1018.8 |
| 20260906011603 | 27 | 360 | 8.0 | 16.1 | 0.00 | 0.00 | 0.00 | 31 | 1018.8 |
| 20260906010053 | 28 | 1 | 9.7 | 14.5 | 0.00 | 0.00 | 0.00 | 28 | 1018.7 |
| 20260906004555 | 30 | 1 | 8.0 | 16.1 | 0.00 | 0.00 | 0.00 | 27 | 1018.9 |
| 20260906003056 | 31 | 1 | 8.0 | 19.3 | 0.00 | 0.00 | 0.00 | 25 | 1018.8 |
| 20260906001554 | 32 | 1 | 4.8 | 11.3 | 0.00 | 0.00 | 0.00 | 23 | 1018.6 |
| 20260906000059 | 32 | 0 | 1.6 | 6.4 | 0.00 | 0.00 | 0.00 | 23 | 1018.5 |
| 20260905234547 | 32 | 0 | 0.0 | 3.2 | 0.00 | 0.00 | 0.00 | 24 | 1018.3 |
| 20260905233056 | 32 | 1 | 1.6 | 8.0 | 0.00 | 0.00 | 0.00 | 24 | 1018.3 |
| 20260905231556 | 32 | 1 | 1.6 | 14.5 | 0.00 | 0.00 | 0.00 | 23 | 1018.3 |
| 20260905230048 | 32 | 1 | 1.6 | 11.3 | 0.00 | 0.00 | 0.00 | 23 | 1018.3 |
| 20260905224541 | 31 | 1 | 3.2 | 12.9 | 0.00 | 0.00 | 0.00 | 24 | 1018.3 |
| 20260905223049 | 32 | 1 | 6.4 | 16.1 | 0.00 | 0.00 | 0.00 | 23 | 1018.5 |
| 20260905221558 | 33 | 1 | 6.4 | 12.9 | 0.00 | 0.00 | 0.00 | 23 | 1018.4 |
| 20260905220053 | 34 | 0 | 3.2 | 9.7 | 0.00 | 0.00 | 0.00 | 21 | 1018.5 |
| 20260905214546 | 34 | 1 | 6.4 | 19.3 | 0.00 | 0.00 | 0.00 | 21 | 1018.9 |
| 20260905213054 | 34 | 1 | 11.3 | 24.1 | 0.00 | 0.00 | 0.00 | 20 | 1018.8 |